Weather observations for the past three days for
Yankton, Chan Gurney Municipal Airport
Metric (Imperial)
Date Time (cdt) Wind (kph) Vis. (km) Weather Sky Cond. Temperature (ºC) Relative Humidity Wind Chill (°C) Heat Index (°C) Pressure Precipitation (cm)
Air Dwpt 6 hour altimeter (cm) sea level (mb) 1 hr 3 hr 6 hr
Max. Min.
03 15:56 W 13 16.09 Fair CLR 22.2 2.2 27% 75.74 1010.8
03 14:56 W 13 G 30 16.09 Fair CLR 21.1 2.2 29% 75.82 1011.7
03 13:56 NW 19 16.09 Fair CLR 20.6 2.2 30% 75.87 1012.4
03 12:56 N 22 G 31 16.09 A Few Clouds FEW070 20.6 3.3 20.6 8.3 32% 75.92 1013.0
03 11:56 NW 15 G 33 16.09 Fair CLR 19.4 3.9 36% 75.95 1013.3
03 10:56 N 17 16.09 Fair CLR 17.8 5 43% 75.95 1013.2
03 09:56 N 20 16.09 Fair CLR 15.6 5 50% 75.95 1013.3
03 08:56 NW 20 16.09 Fair CLR 12.2 5 62% 75.97 1013.9
03 07:56 NW 15 16.09 Fair CLR 10 4.4 68% 8 75.92 1013.3
03 06:56 NW 15 16.09 Fair CLR 8.9 3.9 15 7.8 71% 7 75.84 1012.5
03 05:56 NW 19 16.09 Fair CLR 9.4 3.3 66% 7 75.82 1011.7
03 04:56 NW 19 16.09 Fair CLR 10 3.3 63% 8 75.77 1011.3
03 03:56 W 13 16.09 Fair CLR 9.4 2.8 64% 8 75.72 1010.7
03 02:56 NW 19 16.09 Fair CLR 10 2.8 61% 8 75.69 1010.3
03 01:56 NW 6 16.09 Fair CLR 12.2 1.7 49% 75.69 1010.3
03 00:56 NW 7 16.09 Fair CLR 13.3 1.1 21.1 13.3 44% 75.74 1010.7
02 23:56 SW 22 16.09 Fair CLR 17.2 0.6 33% 75.64 1009.3
02 22:56 Vrbl 7 16.09 A Few Clouds FEW110 16.1 0.6 35% 75.69 1010.1
02 21:56 SE 9 16.09 A Few Clouds FEW120 16.7 0.6 34% 75.74 1010.9
02 20:56 S 13 16.09 Fair CLR 17.2 0 31% 75.74 1011.1
02 19:56 S 13 16.09 Fair CLR 20.6 -1.1 23% 75.79 1011.7
02 18:56 S 19 16.09 A Few Clouds FEW120 20.6 -2.8 21.7 17.2 21% 75.87 1013.0
02 17:56 SW 22 16.09 Fair CLR 21.1 -4.4 18% 75.92 1013.8
02 16:56 SW 24 G 30 16.09 Fair CLR 21.1 -5.6 16% 76.02 1015.0
02 15:56 SW 20 G 31 16.09 Fair CLR 20.6 -3.9 19% 76.1 1016.1
02 14:56 Vrbl 9 16.09 Fair CLR 19.4 -2.8 22% 76.2 1017.5
02 13:56 SW 20 G 31 16.09 Fair CLR 18.3 -1.1 27% 76.3 1018.8
02 12:56 W 19 16.09 Fair CLR 17.2 -2.2 17.2 0 27% 76.38 1019.9
02 11:56 SW 17 16.09 Fair CLR 16.7 -0.6 31% 76.45 1020.8
02 10:56 NW 13 16.09 Fair CLR 14.4 0.6 39% 76.48 1021.4
02 09:56 SW 13 16.09 Fair CLR 11.7 0.6 47% 76.5 1021.7
02 08:56 S 13 16.09 Fair CLR 7.8 0.6 61% 6 76.53 1022.2
02 07:56 Calm 16.09 Fair CLR 2.8 1.1 89% 76.56 1022.8
02 06:56 Calm 16.09 Fair CLR 0 -2.8 3.9 -1.1 82% 76.58 1023.0
02 05:56 Calm 16.09 Fair CLR -0.6 -3.3 82% 76.56 1022.9
02 04:56 Calm 16.09 Fair CLR 0 -2.8 82% 76.56 1022.9
02 03:56 Calm 16.09 Fair CLR 1.7 -2.8 72% 76.56 1022.7
02 02:56 Calm 16.09 Fair CLR 0.6 -3.9 72% 76.58 1023.1
02 01:56 W 6 16.09 Fair CLR 1.7 -2.8 72% 76.61 1023.2
02 00:56 Calm 16.09 Fair CLR 2.8 -2.2 12.2 1.7 70% 76.58 1023.1
01 23:56 NW 9 16.09 Fair CLR 4.4 -3.3 58% 2 76.58 1022.9
01 22:56 NW 11 16.09 Fair CLR 3.9 -2.8 62% 1 76.58 1022.9
01 21:56 NW 7 16.09 Fair CLR 7.2 -3.3 48% 6 76.56 1022.6
01 20:56 NW 11 16.09 Fair CLR 7.8 -3.9 44% 6 76.53 1022.2
01 19:56 NW 15 16.09 Fair CLR 10.6 -3.9 36% 76.48 1021.8
01 18:56 NW 22 16.09 Partly Cloudy SCT070 12.8 -4.4 13.3 10 30% 76.48 1021.7
01 17:56 N 24 G 33 16.09 Mostly Cloudy BKN070 13.3 -4.4 29% 76.48 1021.4
01 16:56 NW 20 G 33 16.09 Partly Cloudy SCT070 12.8 -3.9 31% 76.48 1021.5
01 15:56 NW 24 G 30 16.09 Partly Cloudy SCT065 12.8 -3.9 31% 76.5 1021.8
01 14:56 NW 17 G 31 16.09 Fair CLR 11.7 -3.3 35% 76.53 1022.1
01 13:56 N 30 G 35 16.09 Partly Cloudy SCT055 11.1 -3.3 37% 76.53 1022.2
01 12:56 NW 28 G 37 16.09 A Few Clouds FEW049 10.6 -2.8 10.6 0.6 39% 76.56 1022.5
01 11:56 NW 24 16.09 Mostly Cloudy BKN047 8.9 -2.8 44% 6 76.58 1022.9
01 10:56 N 20 G 35 16.09 A Few Clouds FEW044 8.9 -1.7 48% 6 76.56 1022.7
01 09:56 N 17 16.09 Fair CLR 7.8 -1.1 54% 5 76.58 1022.8
01 08:56 NW 15 16.09 Fair CLR 5 0 70% 2 76.58 1022.8
01 07:56 NW 17 16.09 Fair CLR 2.8 0.6 86% -1 76.56 1022.5
01 06:56 NW 17 16.09 Fair CLR 0.6 0 6.1 0 96% -4 76.48 1021.8
01 05:56 NW 15 16.09 Fair CLR 0.6 0.6 100% -3 76.48 1021.6
01 04:56 NW 15 16.09 Fair CLR 1.7 0.6 93% -2 76.45 1021.2
01 03:56 NW 19 16.09 Fair CLR 1.7 1.1 96% -2 76.4 1020.4
01 02:56 NW 20 16.09 Fair CLR 2.8 0.6 86% -1 76.35 1020.0
01 01:56 W 20 16.09 Fair CLR 5 0.6 73% 1 76.38 1020.1
01 00:56 NW 17 16.09 Fair CLR 6.1 1.1 12.2 5 71% 3 76.38 1020.1
30 23:56 SW 9 16.09 Fair CLR 6.1 1.1 71% 4 76.35 1019.8
30 22:56 S 9 16.09 Fair CLR 6.7 1.7 71% 5 76.38 1020.2
30 21:56 N 6 16.09 Mostly Cloudy BKN095 7.8 1.1 63% 76.4 1020.4
30 20:56 NW 17 16.09 Mostly Cloudy FEW070 BKN090 9.4 0 52% 7 76.38 1020.2
30 19:56 W 11 16.09 Mostly Cloudy BKN100 11.1 -1.1 43% 76.35 1019.6
30 18:56 NW 17 16.09 Mostly Cloudy BKN085 12.2 -2.8 12.8 10 35% 76.35 1019.9
30 17:56 NW 15 16.09 Mostly Cloudy BKN075 BKN090 11.7 -2.8 37% 76.4 1020.3
30 16:56 NW 13 16.09 A Few Clouds FEW080 11.7 -3.9 34% 76.43 1020.5
Date Time (cdt) Wind (kph) Vis. (km) Weather Sky Cond. Air Dwpt Max. Min. Relative Humidity Wind Chill (°C) Heat Index (°C) altimeter (cm) sea level (mb) 1 hr 3 hr 6 hr
6 hour
Temperature (ºC) Pressure Precipitation (cm)